Wenzhou, China
Current Conditions -  °F | °C
As of 9:00 AM on Sunday 26 Oct 2014 (Local Time) from ZSNB Reporting Station
Clear Clear  
Wind Chill: 72°   Ceiling: Unl
Heat Index: 72°   Visibility: 4mi
Dew Point: 63°   Wind: 4mph
Humidity: 73%   Direction: 180°S
Pressure: 30.09"   Gusts: NA
Location:  28.02°N, 120.65°E
Report Text: ZSNB 260100Z 18002MPS 150V210 6000 NSC 22/17 Q1019 NOSIG
Loading
Personal Weather Stations






























Interactive Weather Map
Tropical Storm Tracking
New forecast layout! Learn more

10-Day Weather Forecast

Advertisements
Track Severe Weather on mobile